Time;durP1;ratioP1;P1;durP2;ratioP2;P2;SDS_P1;SDS_P2;PMS_P1;PMS_P2;Temp;Humidity;BMP_temperature;BMP_pressure;BME280_temperature;BME280_humidity;BME280_pressure;Samples;Min_cycle;Max_cycle;Signal;HPM_P1;HPM_P2
2022/11/19 00:02:07;;;;;;;16.15;4.80;;;;;;;21.82;55.67;100125.81;4973365;28;20440;-47
2022/11/19 00:04:32;;;;;;;24.58;6.93;;;;;;;21.82;55.83;100125.00;4976614;28;20046;-45
2022/11/19 00:06:57;;;;;;;17.25;5.25;;;;;;;21.81;55.83;100124.16;4975207;28;20052;-47
2022/11/19 00:09:23;;;;;;;22.73;7.60;;;;;;;21.82;55.82;100122.38;4981355;28;20116;-47
2022/11/19 00:14:33;;;;;;;22.00;6.38;;;;;;;21.80;55.68;100131.19;4977032;28;20053;-46
2022/11/19 00:16:59;;;;;;;16.42;5.95;;;;;;;21.80;55.59;100125.09;4975148;28;20235;-45
2022/11/19 00:19:25;;;;;;;20.83;7.32;;;;;;;21.79;55.79;100120.75;4974724;28;20042;-45
2022/11/19 00:21:50;;;;;;;19.23;5.05;;;;;;;21.80;55.73;100117.19;4980182;28;20514;-46
2022/11/19 00:24:15;;;;;;;15.38;5.03;;;;;;;21.79;55.77;100118.97;4975644;28;20022;-46
2022/11/19 00:26:41;;;;;;;17.88;5.40;;;;;;;21.79;55.89;100111.09;4971032;28;20088;-46
2022/11/19 00:29:06;;;;;;;19.75;5.95;;;;;;;21.78;55.73;100105.94;4976191;28;20125;-45
2022/11/19 00:31:32;;;;;;;21.70;6.72;;;;;;;21.78;55.81;100114.69;4979280;28;20069;-47
2022/11/19 00:33:57;;;;;;;15.43;5.28;;;;;;;21.77;55.79;100107.72;4972548;28;20053;-49
2022/11/19 00:36:23;;;;;;;17.08;4.90;;;;;;;21.77;55.62;100120.88;4978157;28;20050;-45
2022/11/19 00:38:48;;;;;;;17.52;5.18;;;;;;;21.77;55.64;100104.25;4977334;28;20066;-47
2022/11/19 00:41:13;;;;;;;19.92;6.35;;;;;;;21.77;55.77;100114.75;4984089;28;20492;-45
2022/11/19 00:43:51;;;;;;;16.15;6.03;;;;;;;21.76;55.65;100113.06;4973682;28;20554;-47
2022/11/19 00:46:18;;;;;;;19.45;6.05;;;;;;;21.77;55.78;100114.75;4978761;28;20842;-47
2022/11/19 00:48:45;;;;;;;16.90;5.95;;;;;;;21.76;55.57;100118.31;4978727;28;20447;-47
2022/11/19 00:51:10;;;;;;;18.83;6.20;;;;;;;21.76;55.76;100118.31;4968883;28;20475;-49
2022/11/19 00:53:36;;;;;;;18.25;5.47;;;;;;;21.75;55.65;100117.50;4972168;28;20065;-49
2022/11/19 00:56:03;;;;;;;18.55;7.05;;;;;;;21.76;55.65;100118.31;4975600;28;20062;-45
2022/11/19 00:58:29;;;;;;;22.95;6.68;;;;;;;21.74;55.81;100121.06;4978072;28;20053;-46
2022/11/19 01:00:55;;;;;;;17.70;5.55;;;;;;;21.74;55.70;100120.22;4975423;28;20035;-45
2022/11/19 01:03:21;;;;;;;16.52;4.97;;;;;;;21.74;55.70;100117.59;4976881;28;20116;-44
2022/11/19 01:05:47;;;;;;;16.80;4.95;;;;;;;21.73;55.71;100116.75;4975819;28;20591;-48
2022/11/19 01:08:12;;;;;;;12.27;4.68;;;;;;;21.73;55.69;100121.16;4975430;28;20058;-47
2022/11/19 01:10:37;;;;;;;19.17;6.05;;;;;;;21.74;55.78;100112.34;4975840;28;20039;-45
2022/11/19 01:15:48;;;;;;;18.48;5.88;;;;;;;21.72;55.84;100115.06;4972437;28;20100;-47
2022/11/19 01:18:15;;;;;;;10.10;3.88;;;;;;;21.72;55.69;100116.84;4980793;28;20267;-46
2022/11/19 01:20:40;;;;;;;19.70;6.40;;;;;;;21.72;55.72;100122.13;4973858;28;20122;-46
2022/11/19 01:23:06;;;;;;;20.65;5.65;;;;;;;21.71;55.79;100123.91;4977118;28;20034;-49
2022/11/19 01:25:31;;;;;;;21.30;6.57;;;;;;;21.71;55.82;100126.53;4976045;28;20050;-48
2022/11/19 01:27:57;;;;;;;14.88;5.13;;;;;;;21.69;55.71;100120.53;4972537;28;20501;-46
2022/11/19 01:30:23;;;;;;;20.20;5.45;;;;;;;21.70;55.79;100121.38;4979275;28;20050;-47
2022/11/19 01:32:49;;;;;;;16.83;5.15;;;;;;;21.70;55.65;100127.47;4976078;28;20047;-48
2022/11/19 01:35:14;;;;;;;20.80;5.18;;;;;;;21.70;55.69;100131.91;4980507;28;20459;-48
2022/11/19 01:37:40;;;;;;;23.92;7.47;;;;;;;21.71;55.86;100131.78;4977684;28;20093;-47
2022/11/19 01:40:06;;;;;;;14.00;5.28;;;;;;;21.71;55.75;100133.56;4978877;28;20034;-49
2022/11/19 01:42:49;;;;;;;26.45;7.63;;;;;;;21.70;55.66;100131.91;4978368;28;20117;-46
2022/11/19 01:45:28;;;;;;;16.20;5.15;;;;;;;21.69;55.62;100133.69;4983161;28;20026;-47
2022/11/19 01:47:57;;;;;;;24.20;8.00;;;;;;;21.69;55.80;100130.22;4975972;28;20411;-48
2022/11/19 01:50:25;;;;;;;20.73;6.70;;;;;;;21.69;55.83;100130.22;4974366;28;20042;-46
2022/11/19 01:52:50;;;;;;;18.25;5.68;;;;;;;21.68;55.82;100136.41;4975845;28;20581;-47
2022/11/19 01:55:17;;;;;;;19.70;5.53;;;;;;;21.68;55.72;100134.63;4976014;28;20050;-45
2022/11/19 01:57:43;;;;;;;16.42;5.47;;;;;;;21.68;55.82;100126.72;4979501;28;20042;-47
2022/11/19 02:00:10;;;;;;;19.02;6.05;;;;;;;21.67;55.82;100132.91;4980886;28;20069;-45
2022/11/19 02:02:35;;;;;;;17.90;6.20;;;;;;;21.67;55.81;100138.19;4980010;28;20045;-47
2022/11/19 02:05:01;;;;;;;18.45;5.10;;;;;;;21.68;55.77;100137.25;4984178;28;20042;-46
2022/11/19 02:07:30;;;;;;;21.80;6.57;;;;;;;21.68;55.63;100141.66;4979200;28;20046;-49
2022/11/19 02:09:58;;;;;;;19.80;6.88;;;;;;;21.68;55.63;100136.41;4977401;28;20050;-47
2022/11/19 02:12:58;;;;;;;18.48;6.05;;;;;;;21.67;55.67;100142.63;4981523;28;20052;-48
2022/11/19 02:15:59;;;;;;;18.98;5.63;;;;;;;21.67;55.81;100147.88;4976729;28;20104;-49
2022/11/19 02:19:08;;;;;;;19.52;5.57;;;;;;;21.66;55.79;100147.03;4978045;28;20315;-48
2022/11/19 02:21:47;;;;;;;16.42;5.93;;;;;;;21.65;55.68;100147.97;4955181;28;21866;-48
2022/11/19 02:24:31;;;;;;;18.50;6.20;;;;;;;21.65;55.66;100149.75;4976768;28;20085;-47
2022/11/19 02:27:04;;;;;;;16.35;5.45;;;;;;;21.65;55.79;100144.47;4978538;28;20062;-46
2022/11/19 02:29:30;;;;;;;23.70;7.75;;;;;;;21.64;55.69;100146.25;4980055;28;20050;-48
2022/11/19 02:32:17;;;;;;;20.33;6.00;;;;;;;21.64;55.71;100156.78;4977504;28;22269;-47
2022/11/19 02:34:54;;;;;;;22.88;7.70;;;;;;;21.64;55.64;100153.34;4976087;28;20062;-47
2022/11/19 02:37:27;;;;;;;15.20;4.78;;;;;;;21.64;55.71;100148.06;4981184;28;20507;-45
2022/11/19 02:40:04;;;;;;;16.58;4.97;;;;;;;21.63;55.69;100151.63;4973777;28;20046;-45
2022/11/19 02:42:32;;;;;;;22.67;6.75;;;;;;;21.63;55.68;100152.50;4976185;28;20031;-48
2022/11/19 02:45:22;;;;;;;18.33;6.80;;;;;;;21.63;55.88;100151.63;4978501;28;20054;-47
2022/11/19 02:47:58;;;;;;;19.52;6.32;;;;;;;21.63;55.85;100155.13;4974230;28;20042;-45
2022/11/19 02:50:30;;;;;;;18.05;6.18;;;;;;;21.63;55.71;100151.63;4977024;28;20042;-46
2022/11/19 02:52:57;;;;;;;19.33;5.35;;;;;;;21.63;55.76;100151.63;4984026;28;20042;-46
2022/11/19 02:55:22;;;;;;;20.38;6.70;;;;;;;21.63;55.76;100154.28;4973180;28;20428;-46
2022/11/19 02:57:54;;;;;;;18.35;5.32;;;;;;;21.62;55.77;100156.03;4976757;28;20034;-46
2022/11/19 03:06:04;;;;;;;16.90;4.72;;;;;;;21.61;55.75;100154.34;4981840;28;20220;-46
2022/11/19 03:08:30;;;;;;;13.10;3.50;;;;;;;21.61;55.55;100153.53;4985200;28;20034;-45
2022/11/19 03:10:58;;;;;;;19.88;5.38;;;;;;;21.61;55.66;100154.34;4980333;28;20663;-46
2022/11/19 03:19:19;;;;;;;15.75;4.50;;;;;;;21.60;55.74;100157.94;4982231;28;20041;-48
2022/11/19 03:22:07;;;;;;;15.05;4.28;;;;;;;21.59;55.62;100156.25;4976305;28;20515;-45
2022/11/19 03:24:38;;;;;;;21.13;6.03;;;;;;;21.58;55.81;100157.16;4978041;28;20491;-46
2022/11/19 03:27:14;;;;;;;13.50;4.75;;;;;;;21.58;55.79;100157.16;4981266;28;20105;-46
2022/11/19 03:29:46;;;;;;;15.73;4.65;;;;;;;21.58;55.37;100154.53;4976411;28;20053;-46
2022/11/19 03:32:28;;;;;;;15.98;4.53;;;;;;;21.58;55.82;100159.81;4984094;28;20100;-47
2022/11/19 03:34:57;;;;;;;17.88;5.15;;;;;;;21.59;55.93;100160.66;4979551;28;20554;-45
2022/11/19 03:37:26;;;;;;;17.83;4.70;;;;;;;21.57;55.66;100155.50;4981050;28;20042;-48
2022/11/19 03:39:56;;;;;;;20.25;4.63;;;;;;;21.57;55.61;100163.41;4981969;28;20048;-48
2022/11/19 03:42:24;;;;;;;16.27;4.32;;;;;;;21.57;55.71;100163.41;4982726;28;20752;-45
2022/11/19 03:45:09;;;;;;;15.90;4.97;;;;;;;21.57;55.81;100171.28;4972092;28;20050;-48
2022/11/19 03:47:38;;;;;;;16.40;5.10;;;;;;;21.57;55.89;100170.44;4973512;28;20042;-46
2022/11/19 03:50:16;;;;;;;13.13;3.80;;;;;;;21.56;55.63;100180.09;4979782;28;20034;-50
2022/11/19 03:52:42;;;;;;;13.25;4.05;;;;;;;21.56;55.70;100184.50;4982313;28;20034;-49
2022/11/19 03:55:07;;;;;;;15.13;4.38;;;;;;;21.56;55.74;100187.16;4980235;28;20038;-46
2022/11/19 03:57:33;;;;;;;13.85;3.65;;;;;;;21.55;55.61;100188.94;4975659;28;20042;-47
2022/11/19 03:59:58;;;;;;;18.92;5.18;;;;;;;21.55;55.83;100191.56;4981093;28;20825;-47
2022/11/19 04:02:24;;;;;;;22.63;8.07;;;;;;;21.54;55.67;100192.47;4975443;28;20054;-47
2022/11/19 04:04:49;;;;;;;22.20;6.47;;;;;;;21.55;55.75;100190.69;4977310;28;20088;-47
2022/11/19 04:07:21;;;;;;;14.73;4.57;;;;;;;21.54;55.77;100192.47;4982773;28;20049;-46
2022/11/19 04:09:47;;;;;;;21.35;6.40;;;;;;;21.53;55.84;100198.69;4978114;28;20038;-47
2022/11/19 04:12:20;;;;;;;20.17;6.28;;;;;;;21.53;55.71;100198.69;4987595;28;20041;-47
2022/11/19 04:14:47;;;;;;;14.20;4.60;;;;;;;21.52;55.58;100209.31;4984793;28;20046;-47
2022/11/19 04:17:12;;;;;;;16.67;4.95;;;;;;;21.52;55.64;100214.56;4978220;28;20100;-45
2022/11/19 04:19:38;;;;;;;13.80;4.88;;;;;;;21.53;55.77;100224.13;4970522;28;20054;-48
2022/11/19 04:22:03;;;;;;;12.70;4.47;;;;;;;21.51;55.72;100216.34;4978033;28;20065;-48
2022/11/19 04:24:29;;;;;;;19.70;5.28;;;;;;;21.50;55.72;100219.91;4975254;28;20029;-46
2022/11/19 04:26:54;;;;;;;19.15;5.70;;;;;;;21.50;55.57;100219.06;4976617;28;20085;-49
2022/11/19 04:29:20;;;;;;;16.77;6.40;;;;;;;21.49;55.84;100226.09;4979264;28;20046;-45
2022/11/19 04:31:45;;;;;;;20.55;6.05;;;;;;;21.49;55.58;100226.09;4975867;28;20042;-48
2022/11/19 04:34:10;;;;;;;16.63;5.05;;;;;;;21.49;55.77;100227.91;4979128;28;20117;-47
2022/11/19 04:36:39;;;;;;;15.65;5.45;;;;;;;21.48;55.79;100221.78;4977713;28;20057;-46
2022/11/19 04:39:04;;;;;;;15.50;4.50;;;;;;;21.48;55.80;100232.31;4977453;28;20394;-48
2022/11/19 04:41:30;;;;;;;21.45;6.78;;;;;;;21.48;55.71;100226.19;4970480;28;20038;-48
2022/11/19 04:43:55;;;;;;;15.75;4.97;;;;;;;21.47;55.63;100225.34;4975485;28;20446;-46
2022/11/19 04:46:21;;;;;;;19.42;5.55;;;;;;;21.48;55.74;100234.09;4977106;28;20133;-46
2022/11/19 04:48:46;;;;;;;16.90;5.88;;;;;;;21.47;55.60;100235.03;4973351;28;20049;-46
2022/11/19 04:51:11;;;;;;;16.98;5.60;;;;;;;21.46;55.61;100235.97;4973131;28;20483;-47
2022/11/19 04:53:37;;;;;;;17.98;6.90;;;;;;;21.46;55.56;100241.25;4970485;28;20046;-46
2022/11/19 04:56:02;;;;;;;17.13;5.22;;;;;;;21.45;55.71;100240.38;4973459;28;20035;-47
2022/11/19 04:58:28;;;;;;;21.17;6.90;;;;;;;21.45;55.51;100239.53;4979831;28;20400;-48
2022/11/19 05:00:53;;;;;;;20.35;6.05;;;;;;;21.43;55.70;100237.03;4976304;28;20036;-48
2022/11/19 05:03:18;;;;;;;15.90;4.43;;;;;;;21.43;55.59;100239.66;4995320;28;20116;-45
2022/11/19 05:05:44;;;;;;;19.30;5.47;;;;;;;21.43;55.69;100242.28;4998542;28;20038;-45
2022/11/19 05:08:09;;;;;;;18.17;5.93;;;;;;;21.42;55.56;100237.94;4996226;28;20866;-49
2022/11/19 05:10:35;;;;;;;19.95;6.57;;;;;;;21.42;55.52;100245.84;4995401;28;20038;-45
2022/11/19 05:13:00;;;;;;;19.85;6.35;;;;;;;21.43;55.52;100257.19;4993473;28;20042;-47
2022/11/19 05:15:25;;;;;;;21.10;6.75;;;;;;;21.41;55.52;100252.03;4993852;28;20050;-45
2022/11/19 05:17:51;;;;;;;16.80;5.60;;;;;;;21.41;55.63;100241.50;4993191;28;20078;-48
2022/11/19 05:20:16;;;;;;;17.98;6.22;;;;;;;21.41;55.72;100251.16;4994497;28;20128;-45
2022/11/19 05:22:42;;;;;;;15.02;5.80;;;;;;;21.39;55.72;100253.91;4994145;28;20530;-44
2022/11/19 05:25:07;;;;;;;17.80;5.75;;;;;;;21.41;55.53;100252.03;4994737;28;20042;-47
2022/11/19 05:27:33;;;;;;;22.27;7.50;;;;;;;21.39;55.71;100250.44;4992475;28;20716;-45
2022/11/19 05:29:58;;;;;;;17.55;6.20;;;;;;;21.40;55.71;100252.13;4994182;28;20038;-44
2022/11/19 05:32:23;;;;;;;22.85;7.75;;;;;;;21.39;55.51;100253.06;4992962;28;20050;-45
2022/11/19 05:34:49;;;;;;;19.80;5.93;;;;;;;21.38;55.57;100254.84;4994030;28;20045;-47
2022/11/19 05:37:14;;;;;;;17.90;5.63;;;;;;;21.39;55.69;100264.44;4991707;28;20052;-45
2022/11/19 05:39:40;;;;;;;21.38;7.00;;;;;;;21.38;55.53;100272.38;4993145;28;20046;-47
2022/11/19 05:42:05;;;;;;;21.13;6.95;;;;;;;21.38;55.74;100273.25;4992023;28;20412;-45
2022/11/19 05:44:30;;;;;;;18.52;6.03;;;;;;;21.37;55.54;100278.59;4993650;28;20035;-46
2022/11/19 05:46:56;;;;;;;16.92;5.88;;;;;;;21.37;55.48;100279.47;4991189;28;20038;-48
2022/11/19 05:49:22;;;;;;;22.90;8.40;;;;;;;21.36;55.49;100283.03;4991993;28;20141;-45
2022/11/19 05:51:47;;;;;;;16.17;5.30;;;;;;;21.36;55.69;100290.91;4993950;28;20101;-46
2022/11/19 05:54:13;;;;;;;18.05;6.45;;;;;;;21.36;55.75;100290.91;4993848;28;20037;-47
2022/11/19 05:56:38;;;;;;;16.80;5.35;;;;;;;21.35;55.67;100297.09;4995662;28;20042;-47
2022/11/19 05:59:04;;;;;;;20.08;6.15;;;;;;;21.35;55.74;100294.47;5000215;28;20048;-46
2022/11/19 06:01:29;;;;;;;16.30;5.57;;;;;;;21.36;55.56;100313.72;4993301;28;20041;-48
2022/11/19 06:03:55;;;;;;;20.15;7.15;;;;;;;21.36;55.82;100308.47;4995610;28;20061;-47
2022/11/19 06:06:21;;;;;;;11.77;3.95;;;;;;;21.34;55.44;100311.19;5000338;28;20504;-46
2022/11/19 06:08:48;;;;;;;16.35;4.40;;;;;;;21.35;55.75;100325.16;4996887;28;20061;-46
2022/11/19 06:13:59;;;;;;;19.42;6.47;;;;;;;21.35;55.70;100328.63;4992649;28;20053;-44
2022/11/19 06:16:24;;;;;;;18.85;5.85;;;;;;;21.37;55.48;100326.78;4997937;28;20553;-46
2022/11/19 06:18:50;;;;;;;15.77;5.18;;;;;;;21.40;55.46;100331.00;4997400;28;20044;-45
2022/11/19 06:21:15;;;;;;;14.85;4.13;;;;;;;21.43;55.36;100330.84;4997572;28;20029;-49
2022/11/19 06:23:40;;;;;;;17.90;6.28;;;;;;;21.47;55.32;100340.22;4994367;28;20042;-46
2022/11/19 06:26:07;;;;;;;16.90;6.43;;;;;;;21.50;55.25;100343.50;4996307;28;20033;-45
2022/11/19 06:28:32;;;;;;;20.58;5.85;;;;;;;21.55;55.14;100343.25;4993552;28;20473;-44
2022/11/19 06:30:58;;;;;;;18.50;5.85;;;;;;;21.63;54.92;100348.91;4992633;28;20044;-45
2022/11/19 06:33:23;;;;;;;16.42;5.15;;;;;;;21.71;54.85;100349.28;4996968;28;20483;-46
2022/11/19 06:35:49;;;;;;;20.92;6.55;;;;;;;21.80;54.84;100354.84;4997192;28;20058;-44
2022/11/19 06:38:15;;;;;;;18.33;5.80;;;;;;;21.89;54.46;100357.84;4999441;28;20037;-48
2022/11/19 06:40:40;;;;;;;22.30;6.82;;;;;;;21.95;54.49;100358.31;4998131;28;20034;-47
2022/11/19 06:43:05;;;;;;;13.43;5.13;;;;;;;22.01;54.50;100354.47;4999524;28;21130;-45
2022/11/19 06:45:31;;;;;;;21.55;6.88;;;;;;;22.05;54.36;100361.25;4997200;28;20041;-45
2022/11/19 06:47:56;;;;;;;16.05;4.97;;;;;;;22.07;54.27;100369.88;4999004;28;20065;-46
2022/11/19 06:50:22;;;;;;;18.98;6.32;;;;;;;22.10;54.34;100370.53;4997219;28;20077;-46
2022/11/19 06:52:47;;;;;;;16.00;5.70;;;;;;;22.11;54.31;100379.28;4993605;28;20149;-46
2022/11/19 06:55:13;;;;;;;19.65;5.50;;;;;;;22.12;54.22;100378.31;4996654;28;20145;-46
2022/11/19 06:57:38;;;;;;;8.10;3.20;;;;;;;22.13;53.89;100375.63;4998809;28;20653;-47
2022/11/19 07:00:05;;;;;;;22.95;5.57;;;;;;;22.14;54.14;100377.31;4995032;28;20609;-47
2022/11/19 07:02:30;;;;;;;19.92;6.95;;;;;;;22.14;54.11;100382.59;4996453;28;20029;-46
2022/11/19 07:04:55;;;;;;;21.10;7.25;;;;;;;22.15;54.15;100392.16;4996015;28;20037;-46
2022/11/19 07:07:21;;;;;;;22.52;6.95;;;;;;;22.15;54.15;100392.16;4999386;28;20034;-48
2022/11/19 07:09:46;;;;;;;17.40;6.00;;;;;;;22.16;54.04;100388.59;4993740;28;20053;-45
2022/11/19 07:12:12;;;;;;;16.83;5.07;;;;;;;22.17;54.23;100398.19;4997290;28;20628;-49
2022/11/19 07:14:37;;;;;;;19.60;5.43;;;;;;;22.17;54.07;100402.59;4996207;28;20054;-49
2022/11/19 07:17:04;;;;;;;22.15;6.35;;;;;;;22.18;54.03;100406.91;4995317;28;20521;-49
2022/11/19 07:19:29;;;;;;;17.45;5.53;;;;;;;22.18;54.18;100412.16;4994641;28;20042;-45
2022/11/19 07:21:55;;;;;;;13.13;4.38;;;;;;;22.19;53.95;100421.78;4993316;28;20506;-45
2022/11/19 07:24:20;;;;;;;15.38;4.75;;;;;;;22.20;54.07;100420.84;4992839;28;20422;-45
2022/11/19 07:26:45;;;;;;;17.23;6.28;;;;;;;22.21;54.09;100422.50;4992914;28;20064;-44
2022/11/19 07:29:13;;;;;;;18.90;6.28;;;;;;;22.20;54.16;100426.97;4989626;28;20091;-48
2022/11/19 07:31:38;;;;;;;19.67;5.55;;;;;;;22.21;53.95;100433.91;4995972;28;20037;-45
2022/11/19 07:34:08;;;;;;;18.10;5.63;;;;;;;22.22;53.95;100424.22;4996189;28;20053;-45
2022/11/19 07:36:33;;;;;;;19.10;6.40;;;;;;;22.21;54.02;100426.00;4995060;28;20041;-46
2022/11/19 07:38:59;;;;;;;17.10;4.78;;;;;;;22.21;53.87;100436.53;4996103;28;20018;-44
2022/11/19 07:44:08;;;;;;;22.10;6.03;;;;;;;22.21;53.58;100439.16;4995869;28;20084;-44
2022/11/19 07:46:34;;;;;;;20.90;6.40;;;;;;;22.22;53.53;100446.13;4992920;28;20065;-44
2022/11/19 07:48:59;;;;;;;19.65;6.45;;;;;;;22.22;53.40;100445.28;4995185;28;20025;-46
2022/11/19 07:51:25;;;;;;;17.33;6.03;;;;;;;22.22;53.33;100454.03;5000593;28;20109;-46
2022/11/19 07:53:51;;;;;;;13.30;4.78;;;;;;;22.23;53.13;100454.88;4995583;28;20034;-46
2022/11/19 07:56:18;;;;;;;15.55;5.40;;;;;;;22.23;52.99;100446.97;4984264;28;20039;-45
2022/11/19 07:58:43;;;;;;;16.85;4.43;;;;;;;22.22;52.68;100450.53;4974868;28;20054;-44
2022/11/19 08:01:10;;;;;;;16.35;5.68;;;;;;;22.22;52.82;100456.66;4977426;28;20660;-46
2022/11/19 08:03:36;;;;;;;15.15;6.00;;;;;;;22.22;52.77;100467.19;4974273;28;20657;-45
2022/11/19 08:06:05;;;;;;;17.75;5.30;;;;;;;22.22;52.78;100461.06;4979563;28;20133;-45
2022/11/19 08:08:31;;;;;;;19.85;6.13;;;;;;;22.23;52.75;100457.50;4973161;28;20094;-45
2022/11/19 08:11:01;;;;;;;17.02;5.50;;;;;;;22.23;52.55;100463.59;4974795;28;20043;-44
2022/11/19 08:13:27;;;;;;;16.90;5.63;;;;;;;22.23;52.55;100463.59;4977114;28;20054;-48
2022/11/19 08:15:58;;;;;;;19.15;6.57;;;;;;;22.24;52.33;100461.81;4978109;28;20057;-44
2022/11/19 08:18:24;;;;;;;16.60;5.95;;;;;;;22.22;52.00;100471.59;4975417;28;20065;-43
2022/11/19 08:20:49;;;;;;;18.33;5.80;;;;;;;22.21;52.02;100467.28;4975646;28;20035;-45
2022/11/19 08:23:15;;;;;;;15.20;5.25;;;;;;;22.20;52.07;100469.09;4977117;28;20111;-46
2022/11/19 08:25:43;;;;;;;22.33;6.10;;;;;;;22.21;51.79;100469.91;4976836;28;20038;-45
2022/11/19 08:28:08;;;;;;;28.13;6.78;;;;;;;22.21;51.89;100480.44;4971947;28;20360;-53
2022/11/19 08:30:34;;;;;;;23.75;8.13;;;;;;;22.21;51.99;100489.19;4982911;28;20511;-44
2022/11/19 08:32:59;;;;;;;26.25;7.00;;;;;;;22.22;52.04;100487.41;4979108;28;20682;-44
2022/11/19 08:35:25;;;;;;;20.98;6.07;;;;;;;22.24;52.32;100494.28;4974668;28;20093;-46
2022/11/19 08:37:50;;;;;;;25.70;7.95;;;;;;;22.24;52.22;100494.28;4984922;28;20046;-47
2022/11/19 08:40:16;;;;;;;21.60;6.60;;;;;;;22.26;52.32;100502.91;4976953;28;20166;-47
2022/11/19 08:42:59;;;;;;;27.52;7.43;;;;;;;22.28;52.11;100501.06;4978520;28;20115;-47
2022/11/19 08:45:36;;;;;;;28.15;8.77;;;;;;;22.29;51.95;100509.81;4978211;28;20385;-45
2022/11/19 08:48:04;;;;;;;20.63;6.53;;;;;;;22.29;51.69;100504.53;4998373;28;20038;-45
2022/11/19 08:50:31;;;;;;;27.63;7.20;;;;;;;22.31;51.74;100502.66;4996898;28;20701;-45
2022/11/19 08:52:58;;;;;;;29.02;6.95;;;;;;;22.33;51.70;100492.84;4996324;28;20050;-47
2022/11/19 08:55:25;;;;;;;30.13;8.25;;;;;;;22.35;51.89;100491.81;5026073;28;20041;-44
2022/11/19 08:57:50;;;;;;;24.60;7.75;;;;;;;22.37;51.76;100489.09;4997559;28;20404;-46
2022/11/19 09:00:16;;;;;;;24.30;6.93;;;;;;;22.41;51.71;100495.06;4996004;28;20112;-46
2022/11/19 09:02:42;;;;;;;20.70;7.75;;;;;;;22.41;51.61;100495.94;4995272;28;20783;-45
2022/11/19 09:05:08;;;;;;;24.67;7.57;;;;;;;22.43;51.61;100498.44;4991806;28;20093;-45
2022/11/19 09:07:33;;;;;;;26.75;8.40;;;;;;;22.44;51.61;100502.78;4995890;28;20526;-45
2022/11/19 09:09:58;;;;;;;14.98;5.75;;;;;;;22.45;51.70;100501.81;4993512;28;20108;-45
2022/11/19 09:12:24;;;;;;;25.00;7.40;;;;;;;22.46;51.68;100512.28;4991419;28;20034;-47
2022/11/19 09:14:49;;;;;;;25.10;8.23;;;;;;;22.48;51.64;100506.91;4994382;28;20038;-45
2022/11/19 09:17:15;;;;;;;25.70;7.07;;;;;;;22.49;51.62;100513.88;4996956;28;20044;-46
2022/11/19 09:19:40;;;;;;;28.25;9.82;;;;;;;22.50;51.63;100520.84;4983617;28;20049;-45
2022/11/19 09:22:06;;;;;;;21.02;6.60;;;;;;;22.49;51.80;100520.00;4996163;28;20073;-45
2022/11/19 09:24:31;;;;;;;22.80;8.05;;;;;;;22.50;51.82;100515.59;4993368;28;20030;-45
2022/11/19 09:26:56;;;;;;;21.75;7.28;;;;;;;22.50;51.56;100516.41;4996649;28;20064;-45
2022/11/19 09:29:22;;;;;;;24.67;8.75;;;;;;;22.50;51.74;100516.41;4995290;28;20100;-45
2022/11/19 09:31:47;;;;;;;23.98;6.47;;;;;;;22.51;51.73;100530.44;4992349;28;20622;-46
2022/11/19 09:34:12;;;;;;;21.38;6.60;;;;;;;22.51;51.81;100535.69;4994347;28;20034;-45
2022/11/19 09:36:38;;;;;;;25.58;8.10;;;;;;;22.51;51.75;100546.22;4993006;28;20842;-45
2022/11/19 09:39:03;;;;;;;16.38;5.60;;;;;;;22.50;51.76;100539.28;4995184;28;20036;-45
2022/11/19 09:41:42;;;;;;;20.20;7.30;;;;;;;22.50;51.86;100548.00;4995673;28;20129;-48
2022/11/19 09:44:13;;;;;;;19.40;6.65;;;;;;;22.50;51.83;100549.81;5000881;28;20065;-45
2022/11/19 09:46:57;;;;;;;24.48;7.70;;;;;;;22.50;51.76;100552.47;4996208;28;20136;-45
2022/11/19 09:49:49;;;;;;;26.15;8.80;;;;;;;22.51;51.82;100551.50;4994148;28;20426;-45
2022/11/19 09:52:21;;;;;;;22.90;6.95;;;;;;;22.50;51.79;100555.91;4998975;28;20109;-45
2022/11/19 09:54:53;;;;;;;20.52;7.25;;;;;;;22.51;51.79;100554.13;5031491;28;20057;-46
2022/11/19 09:57:31;;;;;;;18.95;6.00;;;;;;;22.49;51.78;100550.75;4993039;28;20037;-45
2022/11/19 09:59:59;;;;;;;20.13;6.00;;;;;;;22.50;51.64;100555.09;4996375;28;20045;-45
2022/11/19 10:02:25;;;;;;;23.85;7.57;;;;;;;22.50;51.81;100560.38;4997204;28;20137;-44
2022/11/19 10:04:51;;;;;;;20.27;6.40;;;;;;;22.51;51.87;100556.78;5002511;28;20026;-45
2022/11/19 10:07:43;;;;;;;23.48;7.07;;;;;;;22.51;51.80;100567.31;4999353;28;20030;-46
2022/11/19 10:10:37;;;;;;;24.63;7.85;;;;;;;22.51;51.93;100578.69;4992802;28;20514;-45
2022/11/19 10:13:11;;;;;;;22.20;6.03;;;;;;;22.51;51.90;100577.84;4990166;28;20042;-46
2022/11/19 10:15:49;;;;;;;19.48;5.65;;;;;;;22.51;51.81;100575.22;4996255;28;20018;-45
2022/11/19 10:18:30;;;;;;;20.42;5.82;;;;;;;22.50;51.84;100571.72;4993768;28;20137;-45
2022/11/19 10:21:32;;;;;;;20.52;6.28;;;;;;;22.52;51.92;100569.00;4993146;28;20084;-45
2022/11/19 10:24:24;;;;;;;20.73;6.47;;;;;;;22.50;51.90;100574.34;4997536;28;20041;-44
2022/11/19 10:27:18;;;;;;;21.38;6.68;;;;;;;22.51;51.92;100580.47;4992796;28;20042;-45
2022/11/19 10:29:48;;;;;;;20.27;5.70;;;;;;;22.51;51.88;100580.47;4995817;28;20137;-45
2022/11/19 10:32:23;;;;;;;22.08;6.80;;;;;;;22.51;51.82;100583.97;4999254;28;20044;-44
2022/11/19 10:34:52;;;;;;;18.00;6.10;;;;;;;22.51;52.01;100588.38;5000083;28;20042;-45
2022/11/19 10:37:21;;;;;;;19.38;5.70;;;;;;;22.52;51.99;100585.66;4999538;28;20033;-45
2022/11/19 10:40:15;;;;;;;21.13;6.68;;;;;;;22.52;51.87;100592.72;4996958;28;20092;-49
2022/11/19 10:42:54;;;;;;;19.42;6.05;;;;;;;22.51;51.93;100589.22;4998995;28;20100;-46
2022/11/19 10:45:30;;;;;;;17.25;5.28;;;;;;;22.51;51.84;100591.00;4990579;28;20117;-46
2022/11/19 10:48:12;;;;;;;16.88;5.88;;;;;;;22.51;51.87;100596.28;4997990;28;20056;-46
2022/11/19 10:50:38;;;;;;;18.48;5.78;;;;;;;22.51;51.88;100591.00;4996591;28;20078;-46
2022/11/19 10:53:12;;;;;;;19.92;6.32;;;;;;;22.52;51.87;100595.34;5000622;28;20483;-49
2022/11/19 10:55:46;;;;;;;18.23;5.90;;;;;;;22.52;51.96;100590.09;4997160;28;20038;-47
2022/11/19 10:58:29;;;;;;;17.25;5.90;;;;;;;22.52;52.09;100590.09;5031583;28;21174;-48
2022/11/19 11:00:56;;;;;;;20.08;5.55;;;;;;;22.53;51.79;100589.16;4993447;28;20157;-46
2022/11/19 11:03:25;;;;;;;17.58;5.20;;;;;;;22.53;51.85;100583.88;4993385;28;20081;-48
2022/11/19 11:06:04;;;;;;;20.63;6.57;;;;;;;22.54;52.17;100583.78;4994657;28;20541;-47
2022/11/19 11:08:30;;;;;;;25.48;7.68;;;;;;;22.54;51.89;100582.94;4997065;28;20038;-46
2022/11/19 11:10:55;;;;;;;13.85;4.95;;;;;;;22.53;51.80;100576.81;4995881;28;20953;-46
2022/11/19 11:16:46;;;;;;;26.48;8.52;;;;;;;22.53;51.91;100592.63;4976104;28;20046;-46
2022/11/19 11:19:18;;;;;;;21.13;7.93;;;;;;;22.54;52.00;100593.47;4984419;28;20053;-45
2022/11/19 11:21:44;;;;;;;19.60;6.65;;;;;;;22.54;51.91;100580.28;4999967;28;20030;-44
2022/11/19 11:24:12;;;;;;;18.52;6.22;;;;;;;22.53;51.84;100589.97;5001797;28;20036;-45
2022/11/19 11:26:39;;;;;;;18.50;6.65;;;;;;;22.54;51.85;100594.31;4999621;28;20499;-45
2022/11/19 11:29:13;;;;;;;21.35;7.10;;;;;;;22.54;51.91;100590.84;5000619;28;20092;-47
2022/11/19 11:31:41;;;;;;;16.42;6.40;;;;;;;22.54;51.94;100588.19;4997085;28;20049;-45
2022/11/19 11:34:28;;;;;;;21.65;7.28;;;;;;;22.54;51.86;100590.84;4994801;28;20772;-49
2022/11/19 11:36:54;;;;;;;15.85;5.40;;;;;;;22.54;51.77;100585.56;5003695;28;20045;-48
2022/11/19 11:39:27;;;;;;;23.55;8.77;;;;;;;22.54;51.79;100572.38;4998591;28;20825;-46
2022/11/19 11:41:54;;;;;;;20.77;7.72;;;;;;;22.54;51.78;100577.66;4999914;28;20573;-45
2022/11/19 11:44:22;;;;;;;18.35;5.82;;;;;;;22.54;51.88;100581.16;4997072;28;20038;-46
2022/11/19 11:46:54;;;;;;;16.73;5.90;;;;;;;22.55;51.71;100569.69;5001022;28;20077;-45
2022/11/19 11:49:30;;;;;;;22.42;8.25;;;;;;;22.55;51.78;100563.56;4994782;28;20128;-47
2022/11/19 11:52:15;;;;;;;19.13;5.47;;;;;;;22.55;51.94;100567.03;4992622;28;20052;-48